Startpagina
METAR-TAF:

METAR-TAF

Vliegvelden :

Luchthaven Doesjanbe

Doesjanbe, Tadzjikistan

breedte: 38-33N, lengte: 068-47E, hoogte: 803 m

Actueel weer

Dit bericht is 16 minuten geleden gemaakt, om 23:00 UTC
Wind 2 kt uit het noorden
Temperatuur 18°C
Vochtigheid 68%
Druk 1012 hPa
Zicht 10 km of meer
Weinig wolken op 11000 ft

METAR: UTDD 262300Z 01001MPS 9999 FEW110 18/12 Q1012 R09/D NOSIG RMK QFE691/0922

Tijdstip: 04:16 (23:16 UTC)

Verwachting

Dit bericht is 2 uur en het 16 minuten geleden gemaakt, om 21:00 UTC
Verwachting geldig van 26 om 22 UTC tot 27 om 10 UTC
Wind 4 kt uit variabele richting
Zicht: 6000 m
Weinig wolken op 6600 ft, Cumulonimbus.
Verspreide wolken op 15000 ft

TAF: UTDD 262100Z 2622/2710 VRB02MPS 6000 FEW066CB SCT150

Waarnemingen en weersverwachtingen van meer dan 4000 vliegvelden (METAR en TAF).

De beschikbare stations zijn de gele en rode punten op de kaart.

Ga met uw muis naar het station om de naam te zien.

Klik dan om waarnemingen en weersverwachtingen te zien.

kaart wijzigen: klik op de groene knoppen met een zwart kruis om in te zoomen, op de groene knop met een streepje om uit te zoomen of op de groene pijlen voor aangrenzende kaarten.


METAR-TAF: